Time;durP1;ratioP1;P1;durP2;ratioP2;P2;SDS_P1;SDS_P2;PMS_P1;PMS_P2;Temp;Humidity;BMP_temperature;BMP_pressure;BME280_temperature;BME280_humidity;BME280_pressure;Samples;Min_cycle;Max_cycle;Signal;HPM_P1;HPM_P2
2023/12/11 00:01:39;;;;;;;49.92;32.72;;;;;;;3.06;100.00;92986.75;4989895;28;20047;-79
2023/12/11 00:04:06;;;;;;;48.47;31.77;;;;;;;3.18;100.00;92994.75;4988120;28;20483;-78
2023/12/11 00:06:33;;;;;;;51.85;32.13;;;;;;;3.22;100.00;92993.44;4988184;28;20165;-78
2023/12/11 00:09:00;;;;;;;48.55;31.40;;;;;;;3.31;100.00;92996.72;4988176;28;20134;-78
2023/12/11 00:11:27;;;;;;;45.55;29.95;;;;;;;3.32;100.00;92996.56;4990307;28;20058;-78
2023/12/11 00:13:54;;;;;;;47.90;30.45;;;;;;;3.31;100.00;92997.53;4990545;28;20052;-78
2023/12/11 00:16:23;;;;;;;47.92;30.80;;;;;;;3.40;100.00;92999.97;4989523;28;20129;-78
2023/12/11 00:18:50;;;;;;;47.60;29.58;;;;;;;3.36;100.00;92991.91;4989671;28;20038;-78
2023/12/11 00:21:17;;;;;;;47.63;30.08;;;;;;;3.39;100.00;93000.94;4988289;28;20061;-78
2023/12/11 00:23:44;;;;;;;48.97;31.65;;;;;;;3.33;100.00;92995.59;4987888;28;20042;-78
2023/12/11 00:26:11;;;;;;;59.45;35.78;;;;;;;3.56;100.00;93011.78;4988738;28;20090;-78
2023/12/11 00:28:38;;;;;;;50.70;31.67;;;;;;;3.60;100.00;93007.91;4993219;28;20530;-78
2023/12/11 00:31:07;;;;;;;47.00;29.50;;;;;;;3.63;100.00;93015.19;4986848;28;20060;-78
2023/12/11 00:33:36;;;;;;;46.28;27.42;;;;;;;3.67;100.00;93018.19;4981391;28;20168;-78
2023/12/11 00:36:03;;;;;;;44.58;28.88;;;;;;;3.69;100.00;93014.50;4983129;28;20050;-78
2023/12/11 00:38:31;;;;;;;46.72;28.88;;;;;;;3.58;100.00;93005.56;4981541;28;20054;-78
2023/12/11 00:40:58;;;;;;;51.90;30.98;;;;;;;3.71;100.00;93027.06;4976083;28;20144;-78
2023/12/11 00:43:25;;;;;;;50.22;31.35;;;;;;;3.70;100.00;93026.25;4999060;28;20125;-78
2023/12/11 00:45:52;;;;;;;45.75;29.92;;;;;;;3.67;100.00;93020.72;4990636;28;20161;-77
2023/12/11 00:48:19;;;;;;;49.58;30.85;;;;;;;3.61;100.00;93025.53;4991852;28;20105;-78
2023/12/11 00:50:47;;;;;;;47.22;29.70;;;;;;;3.64;100.00;93026.94;4988013;28;20137;-78
2023/12/11 00:53:14;;;;;;;44.85;28.35;;;;;;;3.67;100.00;93029.16;4995995;28;20128;-79
2023/12/11 00:55:41;;;;;;;43.75;27.98;;;;;;;3.70;100.00;93041.50;4994206;28;20507;-78
2023/12/11 00:58:09;;;;;;;42.78;26.98;;;;;;;3.61;100.00;93022.19;4991855;28;20571;-78
2023/12/11 01:00:35;;;;;;;45.45;28.67;;;;;;;3.65;100.00;93032.81;4991835;28;20500;-78
2023/12/11 01:03:03;;;;;;;50.42;29.02;;;;;;;3.68;100.00;93035.00;4992546;28;20591;-78
2023/12/11 01:05:30;;;;;;;43.28;29.60;;;;;;;3.69;100.00;93036.56;4991514;28;20500;-78
2023/12/11 01:07:58;;;;;;;44.80;27.55;;;;;;;3.68;100.00;93035.00;4991626;28;20144;-78
2023/12/11 01:10:25;;;;;;;45.75;29.38;;;;;;;3.68;100.00;93029.91;4994771;28;20046;-78
2023/12/11 01:12:52;;;;;;;45.70;28.67;;;;;;;3.69;100.00;93031.50;4992430;28;20165;-78
2023/12/11 01:15:19;;;;;;;43.95;27.83;;;;;;;3.64;100.00;93026.94;4992160;28;20109;-78
2023/12/11 01:17:46;;;;;;;43.58;28.05;;;;;;;3.60;100.00;93030.78;4991304;28;20046;-78
2023/12/11 01:20:13;;;;;;;45.17;27.63;;;;;;;3.55;100.00;93027.94;4995010;28;20174;-78
2023/12/11 01:22:40;;;;;;;48.25;30.23;;;;;;;3.58;100.00;93020.00;4991408;28;20093;-78
2023/12/11 01:25:09;;;;;;;50.45;32.47;;;;;;;3.53;100.00;93014.66;4995256;28;20570;-78
2023/12/11 01:27:36;;;;;;;57.97;34.38;;;;;;;3.51;100.00;93019.13;5004848;28;20654;-78
2023/12/11 01:30:04;;;;;;;54.22;34.67;;;;;;;3.58;100.00;93020.81;4992732;28;20508;-78
2023/12/11 01:32:31;;;;;;;51.78;33.65;;;;;;;3.56;100.00;93016.84;4991090;28;20683;-78
2023/12/11 01:34:58;;;;;;;54.97;33.85;;;;;;;3.48;100.00;92997.41;4994710;28;20749;-78
2023/12/11 01:37:25;;;;;;;67.78;42.05;;;;;;;3.64;100.00;93015.97;4991137;28;20580;-78
2023/12/11 01:39:52;;;;;;;50.40;34.05;;;;;;;3.65;100.00;93015.03;4990816;28;20665;-78
2023/12/11 01:42:20;;;;;;;50.22;31.27;;;;;;;3.64;100.00;93010.91;4991248;28;20053;-78
2023/12/11 01:44:47;;;;;;;48.42;29.73;;;;;;;3.50;100.00;92992.91;4991324;28;20129;-78
2023/12/11 01:47:14;;;;;;;44.47;27.30;;;;;;;3.59;100.00;93003.81;4990772;28;20090;-78
2023/12/11 01:49:41;;;;;;;44.95;29.17;;;;;;;3.59;100.00;93012.22;4992810;28;20085;-78
2023/12/11 01:52:09;;;;;;;88.93;47.17;;;;;;;3.67;100.00;93013.09;4991192;28;20473;-78
2023/12/11 01:54:37;;;;;;;45.58;28.15;;;;;;;3.71;100.00;93014.34;4991042;28;20389;-78
2023/12/11 01:57:05;;;;;;;43.17;26.42;;;;;;;3.65;100.00;93015.03;4991582;28;20046;-78
2023/12/11 01:59:33;;;;;;;44.75;25.88;;;;;;;3.66;100.00;93007.22;4990575;28;20152;-79
2023/12/11 02:02:01;;;;;;;41.17;26.00;;;;;;;3.69;100.00;93009.44;5005433;28;20093;-78
2023/12/11 02:04:28;;;;;;;43.13;25.45;;;;;;;3.69;100.00;93011.16;5005224;28;20141;-78
2023/12/11 02:06:55;;;;;;;39.00;25.38;;;;;;;3.69;100.00;93001.00;4994599;28;20077;-78
2023/12/11 02:09:22;;;;;;;41.65;25.95;;;;;;;3.74;100.00;93002.09;4994901;28;20148;-78
2023/12/11 02:11:49;;;;;;;36.92;24.45;;;;;;;3.69;100.00;92999.28;4990896;28;20193;-77
2023/12/11 02:14:16;;;;;;;36.85;23.90;;;;;;;3.44;100.00;92958.06;4996414;28;20495;-78
2023/12/11 02:16:44;;;;;;;38.42;22.88;;;;;;;3.60;100.00;92998.56;4991049;28;20077;-78
2023/12/11 02:19:11;;;;;;;37.90;22.52;;;;;;;3.51;100.00;92998.81;4991738;28;20129;-78
2023/12/11 02:21:38;;;;;;;40.10;25.52;;;;;;;3.51;100.00;92996.25;4995175;28;20133;-78
2023/12/11 02:24:10;;;;;;;56.35;35.22;;;;;;;3.47;100.00;92996.59;5003205;28;20153;-78
2023/12/11 02:26:38;;;;;;;54.40;34.88;;;;;;;3.37;100.00;93001.09;4989066;28;20085;-78
2023/12/11 02:29:05;;;;;;;45.83;30.48;;;;;;;3.37;100.00;93005.41;4993931;28;20053;-77
2023/12/11 02:31:32;;;;;;;55.53;35.67;;;;;;;3.38;100.00;93010.28;4990552;28;20137;-78
2023/12/11 02:33:59;;;;;;;59.47;38.78;;;;;;;3.34;100.00;93006.53;4991103;28;20081;-78
2023/12/11 02:36:26;;;;;;;70.72;43.15;;;;;;;3.26;100.00;92999.78;5004747;28;20137;-77
2023/12/11 02:38:53;;;;;;;64.43;40.45;;;;;;;3.36;100.00;93012.22;4993080;28;20090;-77
2023/12/11 02:41:20;;;;;;;62.58;40.08;;;;;;;3.36;100.00;93022.38;4998745;28;20152;-77
2023/12/11 02:43:48;;;;;;;52.92;34.30;;;;;;;3.33;100.00;93008.28;4997856;28;20504;-77
2023/12/11 02:46:15;;;;;;;52.25;32.85;;;;;;;3.25;100.00;93013.44;4992530;28;20129;-78
2023/12/11 02:48:42;;;;;;;51.67;33.65;;;;;;;3.24;100.00;93021.97;4991165;28;20082;-77
2023/12/11 02:51:09;;;;;;;49.33;32.75;;;;;;;3.28;100.00;93022.47;4990242;28;20137;-77
2023/12/11 02:53:36;;;;;;;48.38;32.47;;;;;;;3.26;100.00;93030.22;4991940;28;20129;-78
2023/12/11 02:56:04;;;;;;;49.13;33.03;;;;;;;3.30;100.00;93025.59;4992693;28;20133;-78
2023/12/11 02:58:31;;;;;;;52.42;31.80;;;;;;;3.19;100.00;93003.94;4995134;28;20535;-78
2023/12/11 03:01:00;;;;;;;54.63;34.28;;;;;;;3.33;100.00;93026.06;4990254;28;20156;-78
2023/12/11 03:03:27;;;;;;;53.40;34.00;;;;;;;3.36;100.00;93019.03;5006260;28;20081;-78
2023/12/11 03:05:54;;;;;;;54.83;34.00;;;;;;;3.40;100.00;93016.00;4991436;28;20125;-78
2023/12/11 03:08:21;;;;;;;56.35;34.00;;;;;;;3.37;100.00;93006.19;4989582;28;20081;-78
2023/12/11 03:10:48;;;;;;;48.80;29.85;;;;;;;3.37;100.00;93003.66;4989510;28;20524;-78
2023/12/11 03:13:15;;;;;;;44.15;28.58;;;;;;;3.30;100.00;92995.94;4992051;28;20496;-78
2023/12/11 03:15:42;;;;;;;54.13;30.45;;;;;;;3.22;100.00;92985.84;4990833;28;20150;-78
2023/12/11 03:18:11;;;;;;;44.03;27.10;;;;;;;3.28;100.00;93000.38;4989305;28;20169;-76
2023/12/11 03:20:38;;;;;;;38.03;25.77;;;;;;;3.25;100.00;92997.41;4989483;28;20056;-76
2023/12/11 03:23:05;;;;;;;38.63;24.67;;;;;;;3.18;100.00;93000.63;4990029;28;20093;-76
2023/12/11 03:25:32;;;;;;;35.38;22.50;;;;;;;2.97;100.00;92978.41;4995017;28;20134;-78
2023/12/11 03:27:59;;;;;;;36.80;21.73;;;;;;;3.10;100.00;93004.97;5004315;28;20168;-77
2023/12/11 03:30:26;;;;;;;32.35;20.75;;;;;;;2.99;100.00;92999.31;4999701;28;20129;-79
2023/12/11 03:32:53;;;;;;;32.85;21.45;;;;;;;2.98;100.00;93005.34;4989701;28;20175;-77
2023/12/11 03:35:21;;;;;;;33.72;21.45;;;;;;;2.88;100.00;92995.41;4994593;28;20058;-80
2023/12/11 03:37:48;;;;;;;32.10;20.90;;;;;;;2.85;100.00;92992.41;4990802;28;20137;-78
2023/12/11 03:40:15;;;;;;;31.33;20.63;;;;;;;2.77;100.00;92991.50;4988990;28;20130;-78
2023/12/11 03:42:42;;;;;;;35.70;22.48;;;;;;;2.45;100.00;92956.97;4988948;28;20081;-78
2023/12/11 03:45:10;;;;;;;35.10;23.25;;;;;;;2.66;100.00;92995.22;4990173;28;20042;-78
2023/12/11 03:47:36;;;;;;;35.33;22.70;;;;;;;2.62;100.00;93003.31;5004289;28;20046;-77
2023/12/11 03:50:04;;;;;;;34.90;23.65;;;;;;;2.60;100.00;93008.53;5002987;28;20078;-77
2023/12/11 03:52:32;;;;;;;45.58;27.08;;;;;;;2.59;100.00;93009.50;4991371;28;20132;-77
2023/12/11 03:54:59;;;;;;;43.25;26.40;;;;;;;2.51;100.00;92997.63;4988475;28;20156;-77
2023/12/11 03:57:26;;;;;;;43.28;26.83;;;;;;;2.43;100.00;92992.63;4988991;28;20137;-77
2023/12/11 03:59:53;;;;;;;43.13;26.27;;;;;;;2.37;100.00;92996.59;4988830;28;20139;-77
2023/12/11 04:02:20;;;;;;;40.22;25.80;;;;;;;2.35;100.00;92995.16;4988897;28;20137;-77
2023/12/11 04:04:47;;;;;;;42.80;28.02;;;;;;;2.36;100.00;92995.00;4994557;28;20092;-77
2023/12/11 04:07:14;;;;;;;47.10;33.03;;;;;;;2.23;100.00;92993.00;5005990;28;20085;-76
2023/12/11 04:09:42;;;;;;;41.25;26.13;;;;;;;2.12;100.00;92968.81;4988392;28;20125;-76
2023/12/11 04:12:09;;;;;;;35.10;23.02;;;;;;;2.20;100.00;92995.88;4990257;28;20126;-73
2023/12/11 04:14:36;;;;;;;31.55;20.17;;;;;;;2.19;100.00;92994.28;4990304;28;20137;-76
2023/12/11 04:17:03;;;;;;;29.05;19.30;;;;;;;2.18;100.00;92990.16;4989177;28;20129;-77
2023/12/11 04:19:30;;;;;;;30.52;20.13;;;;;;;2.21;100.00;92999.97;4988138;28;20137;-76
2023/12/11 04:21:57;;;;;;;32.95;20.35;;;;;;;2.22;100.00;93008.38;4988152;28;20136;-76
2023/12/11 04:24:24;;;;;;;32.03;20.95;;;;;;;2.16;100.00;93001.44;4990350;28;20129;-76
2023/12/11 04:26:52;;;;;;;32.25;19.95;;;;;;;2.16;100.00;93002.22;4990278;28;20145;-76
2023/12/11 04:29:19;;;;;;;26.98;17.63;;;;;;;2.12;100.00;92995.88;4988585;28;20058;-76
2023/12/11 04:31:46;;;;;;;27.40;17.50;;;;;;;1.97;100.00;92968.69;4988073;28;20082;-76
2023/12/11 04:34:13;;;;;;;32.92;19.85;;;;;;;2.10;100.00;92995.25;4991886;28;20089;-77
2023/12/11 04:36:43;;;;;;;35.35;22.23;;;;;;;2.13;100.00;92988.13;4992139;28;20132;-76
2023/12/11 04:39:10;;;;;;;63.45;42.20;;;;;;;2.25;100.00;93002.97;4994693;28;20049;-76
2023/12/11 04:41:37;;;;;;;41.05;27.10;;;;;;;2.24;100.00;93002.19;5001179;28;20076;-76
2023/12/11 04:44:05;;;;;;;38.13;23.77;;;;;;;2.21;100.00;92999.97;5000720;28;20480;-76
2023/12/11 04:46:33;;;;;;;45.53;28.70;;;;;;;2.24;100.00;92998.88;4998962;28;20535;-76
2023/12/11 04:49:00;;;;;;;43.95;28.23;;;;;;;2.27;100.00;92999.31;4998986;28;20058;-76
2023/12/11 04:51:27;;;;;;;51.58;29.75;;;;;;;2.28;100.00;93002.66;4987975;28;20679;-76
2023/12/11 04:53:54;;;;;;;45.65;27.60;;;;;;;2.27;100.00;92996.00;4990214;28;20515;-76
2023/12/11 04:56:24;;;;;;;45.88;27.35;;;;;;;2.26;100.00;93002.81;4987715;28;20477;-76
2023/12/11 04:58:51;;;;;;;43.33;25.35;;;;;;;2.16;100.00;92991.31;4988279;28;20262;-76
2023/12/11 05:01:19;;;;;;;42.95;26.30;;;;;;;2.19;100.00;92986.69;4989102;28;20053;-76
2023/12/11 05:03:46;;;;;;;33.08;20.98;;;;;;;2.24;100.00;92991.25;5000236;28;20061;-76
2023/12/11 05:06:13;;;;;;;30.83;20.33;;;;;;;2.18;100.00;92977.50;4987985;28;20444;-76
2023/12/11 05:08:40;;;;;;;31.83;20.02;;;;;;;2.21;100.00;92987.31;4988885;28;20135;-76
2023/12/11 05:11:07;;;;;;;35.92;21.13;;;;;;;2.18;100.00;92982.56;4987898;28;20161;-76
2023/12/11 05:13:34;;;;;;;33.28;20.38;;;;;;;1.96;100.00;92962.06;4990122;28;20488;-76
2023/12/11 05:16:02;;;;;;;30.98;19.90;;;;;;;2.16;100.00;93003.97;4987834;28;20169;-76
2023/12/11 05:18:30;;;;;;;40.00;22.88;;;;;;;2.14;100.00;93004.13;4988080;28;20133;-76
2023/12/11 05:20:57;;;;;;;73.70;36.85;;;;;;;2.13;100.00;93005.84;4991707;28;20093;-76
2023/12/11 05:23:24;;;;;;;40.00;25.35;;;;;;;2.14;100.00;93001.59;4987378;28;20109;-76
2023/12/11 05:25:52;;;;;;;50.97;27.05;;;;;;;2.09;100.00;92994.47;4987745;28;20058;-76
2023/12/11 05:28:18;;;;;;;43.85;26.25;;;;;;;2.15;100.00;93008.25;4987628;28;20229;-76
2023/12/11 05:30:45;;;;;;;41.42;25.25;;;;;;;2.08;100.00;92997.94;4991203;28;20134;-77
2023/12/11 05:33:15;;;;;;;41.88;25.95;;;;;;;2.14;100.00;92996.53;4987731;28;20201;-76
2023/12/11 05:35:44;;;;;;;56.83;30.45;;;;;;;2.20;100.00;93007.75;4991910;28;20456;-76
2023/12/11 05:38:11;;;;;;;49.58;28.90;;;;;;;2.29;100.00;93021.19;4988628;28;20096;-76
2023/12/11 05:40:38;;;;;;;46.70;27.13;;;;;;;2.25;100.00;93026.59;4992578;28;21043;-76
2023/12/11 05:43:05;;;;;;;54.33;31.48;;;;;;;2.26;100.00;93030.69;4990935;28;20050;-76
2023/12/11 05:45:32;;;;;;;53.40;29.35;;;;;;;2.31;100.00;93034.50;4990837;28;20141;-77
2023/12/11 05:47:59;;;;;;;66.30;31.90;;;;;;;2.08;100.00;93035.97;4991802;28;20133;-77
2023/12/11 05:50:26;;;;;;;73.35;37.15;;;;;;;2.22;100.00;93046.41;5005536;28;20125;-77
2023/12/11 05:52:54;;;;;;;55.83;30.73;;;;;;;2.28;100.00;93040.69;4989385;28;20056;-77
2023/12/11 05:55:21;;;;;;;60.78;33.08;;;;;;;2.35;100.00;93048.41;4994234;28;20045;-77
2023/12/11 05:57:48;;;;;;;43.55;27.25;;;;;;;2.19;100.00;93022.16;4991504;28;20108;-77
2023/12/11 06:00:16;;;;;;;43.15;25.08;;;;;;;2.40;100.00;93046.16;4990791;28;20125;-76
2023/12/11 06:02:43;;;;;;;47.25;30.77;;;;;;;2.20;100.00;93038.94;4990902;28;20594;-76
2023/12/11 06:05:10;;;;;;;53.35;36.17;;;;;;;2.31;100.00;93047.16;4990509;28;20224;-77
2023/12/11 06:07:37;;;;;;;58.22;38.38;;;;;;;2.29;100.00;93036.38;4990648;28;20113;-76
2023/12/11 06:10:06;;;;;;;53.83;34.13;;;;;;;2.41;100.00;93040.16;4994729;28;20085;-76
2023/12/11 06:12:33;;;;;;;47.28;27.80;;;;;;;2.34;100.00;93056.97;5008365;28;20050;-77
2023/12/11 06:15:00;;;;;;;41.40;24.90;;;;;;;2.30;100.00;93056.50;4990803;28;20134;-77
2023/12/11 06:17:27;;;;;;;62.38;38.08;;;;;;;2.26;100.00;93042.56;4991411;28;20078;-77
2023/12/11 06:19:54;;;;;;;101.95;53.22;;;;;;;2.49;100.00;93069.75;4993685;28;20061;-77
2023/12/11 06:22:21;;;;;;;77.38;45.30;;;;;;;2.53;100.00;93071.81;4992611;28;20077;-76
2023/12/11 06:24:48;;;;;;;59.78;37.75;;;;;;;2.56;100.00;93058.03;4990624;28;20160;-77
2023/12/11 06:27:16;;;;;;;61.22;35.15;;;;;;;2.65;100.00;93057.00;4990784;28;20049;-76
2023/12/11 06:29:43;;;;;;;52.83;30.95;;;;;;;2.64;100.00;93055.44;4991632;28;20053;-76
2023/12/11 06:32:10;;;;;;;52.15;33.47;;;;;;;2.67;100.00;93046.72;4992045;28;20138;-76
2023/12/11 06:34:37;;;;;;;74.05;39.15;;;;;;;2.73;100.00;93046.03;4992001;28;20042;-76
2023/12/11 06:37:05;;;;;;;67.30;37.50;;;;;;;2.59;100.00;93026.47;5001650;28;20129;-76
2023/12/11 06:39:32;;;;;;;67.57;36.88;;;;;;;2.75;100.00;93048.44;5000401;28;20050;-77
2023/12/11 06:41:59;;;;;;;75.07;38.92;;;;;;;2.70;100.00;93032.91;4995542;28;20132;-77
2023/12/11 06:44:27;;;;;;;43.03;25.33;;;;;;;2.84;100.00;93056.78;5000917;28;20046;-76
2023/12/11 06:46:54;;;;;;;46.72;25.23;;;;;;;2.82;100.00;93056.94;4996398;28;20057;-76
2023/12/11 06:49:22;;;;;;;40.33;21.67;;;;;;;2.82;100.00;93056.16;5000430;28;20050;-76
2023/12/11 06:51:49;;;;;;;34.00;21.80;;;;;;;2.82;100.00;93048.56;4998692;28;20042;-76
2023/12/11 06:54:16;;;;;;;38.90;22.95;;;;;;;2.91;100.00;93055.97;4995512;28;20412;-77
2023/12/11 06:56:43;;;;;;;34.83;18.88;;;;;;;2.91;100.00;93066.09;4996453;28;20538;-77
2023/12/11 06:59:10;;;;;;;47.45;25.98;;;;;;;2.93;100.00;93066.72;4992719;28;20162;-76
2023/12/11 07:01:39;;;;;;;69.35;38.67;;;;;;;2.89;100.00;93057.88;5004123;28;20125;-76
2023/12/11 07:04:07;;;;;;;49.25;31.25;;;;;;;3.02;100.00;93071.78;4991592;28;20077;-76
2023/12/11 07:06:34;;;;;;;39.08;25.27;;;;;;;2.92;100.00;93061.84;4992909;28;20096;-76
2023/12/11 07:09:01;;;;;;;42.17;27.20;;;;;;;3.05;100.00;93087.44;4993522;28;20096;-76
2023/12/11 07:11:28;;;;;;;79.55;42.60;;;;;;;2.84;100.00;93060.13;4991783;28;20169;-77
2023/12/11 07:13:55;;;;;;;141.18;75.95;;;;;;;2.96;100.00;93072.44;4992748;28;20050;-77
2023/12/11 07:16:23;;;;;;;45.00;29.33;;;;;;;3.14;100.00;93090.75;4999915;28;20072;-76
2023/12/11 07:18:51;;;;;;;43.00;27.45;;;;;;;3.22;100.00;93094.97;5012569;28;20384;-76
2023/12/11 07:21:18;;;;;;;87.72;54.47;;;;;;;3.27;100.00;93092.72;5009829;28;20049;-76
2023/12/11 07:23:48;;;;;;;79.18;46.38;;;;;;;3.30;100.00;93096.69;5010384;28;20041;-76
2023/12/11 07:26:15;;;;;;;59.25;36.05;;;;;;;3.38;100.00;93094.09;5008043;28;20042;-76
2023/12/11 07:28:41;;;;;;;88.63;48.03;;;;;;;3.38;100.00;93096.63;5013014;28;20124;-76
2023/12/11 07:31:08;;;;;;;68.43;41.35;;;;;;;3.45;100.00;93102.63;5007763;28;20132;-76
2023/12/11 07:33:35;;;;;;;54.38;32.85;;;;;;;3.55;100.00;93111.75;5008424;28;20097;-76
2023/12/11 07:36:05;;;;;;;45.08;29.60;;;;;;;3.44;100.00;93103.59;4990761;28;20125;-76
2023/12/11 07:38:32;;;;;;;46.90;32.15;;;;;;;3.16;100.00;93110.88;4999742;28;20042;-76
2023/12/11 07:40:59;;;;;;;51.50;32.90;;;;;;;3.31;100.00;93116.84;5010040;28;20056;-76
2023/12/11 07:43:26;;;;;;;50.20;33.58;;;;;;;3.41;100.00;93126.78;5010031;28;20049;-76
2023/12/11 07:45:53;;;;;;;54.85;35.28;;;;;;;3.43;100.00;93127.38;5011992;28;20742;-76
2023/12/11 07:48:20;;;;;;;56.05;38.20;;;;;;;3.52;100.00;93122.28;5006065;28;20140;-76
2023/12/11 07:50:47;;;;;;;59.83;38.33;;;;;;;3.63;100.00;93124.44;5011715;28;20561;-76
2023/12/11 07:53:16;;;;;;;60.83;42.08;;;;;;;3.73;100.00;93121.66;5000160;28;20457;-77
2023/12/11 07:55:43;;;;;;;57.42;38.15;;;;;;;3.70;100.00;93094.84;5010048;28;20143;-76
2023/12/11 07:58:13;;;;;;;65.78;41.67;;;;;;;3.70;100.00;93086.44;5007037;28;20045;-76
2023/12/11 08:00:40;;;;;;;112.20;70.07;;;;;;;4.04;100.00;93122.53;5011186;28;20045;-76
2023/12/11 08:03:07;;;;;;;155.48;87.80;;;;;;;3.95;100.00;93094.66;5012029;28;20125;-77
2023/12/11 08:05:34;;;;;;;68.63;37.53;;;;;;;4.11;100.00;93113.25;5011471;28;20078;-77
2023/12/11 08:08:01;;;;;;;72.82;41.90;;;;;;;4.16;100.00;93117.84;5013512;28;20079;-77
2023/12/11 08:10:29;;;;;;;115.72;62.28;;;;;;;4.14;100.00;93102.75;5009694;28;20136;-76
2023/12/11 08:12:56;;;;;;;120.13;70.93;;;;;;;4.34;100.00;93117.50;5013234;28;20101;-76
2023/12/11 08:15:24;;;;;;;74.05;41.10;;;;;;;4.40;100.00;93104.13;5009212;28;20045;-76
2023/12/11 08:17:50;;;;;;;55.13;33.13;;;;;;;4.43;100.00;93116.47;5009758;28;20081;-76
2023/12/11 08:20:19;;;;;;;45.65;28.73;;;;;;;4.53;100.00;93117.00;5007567;28;20103;-76
2023/12/11 08:22:46;;;;;;;51.42;29.17;;;;;;;4.55;100.00;93115.06;5003835;28;20446;-76
2023/12/11 08:25:13;;;;;;;44.05;27.48;;;;;;;4.64;100.00;93117.53;5011642;28;20246;-76
2023/12/11 08:27:43;;;;;;;52.22;29.45;;;;;;;4.64;100.00;93113.22;5007406;28;20570;-77
2023/12/11 08:30:11;;;;;;;67.88;40.92;;;;;;;4.73;100.00;93124.13;5011746;28;20590;-77
2023/12/11 08:32:38;;;;;;;51.10;30.02;;;;;;;4.74;100.00;93112.19;5009139;28;20053;-77
2023/12/11 08:35:07;;;;;;;65.68;40.10;;;;;;;4.78;100.00;93110.88;5004793;28;20127;-77
2023/12/11 08:37:34;;;;;;;96.97;52.67;;;;;;;4.95;100.00;93119.09;5004744;28;20148;-77
2023/12/11 08:40:03;;;;;;;176.68;88.18;;;;;;;5.06;100.00;93116.09;5005079;28;20062;-76
2023/12/11 08:42:31;;;;;;;83.97;43.92;;;;;;;5.16;100.00;93103.13;5000894;28;20046;-77
2023/12/11 08:45:00;;;;;;;41.42;23.90;;;;;;;5.32;100.00;93108.97;5001839;28;20546;-77
2023/12/11 08:47:27;;;;;;;28.20;17.52;;;;;;;5.38;100.00;93094.72;4997335;28;20047;-77
2023/12/11 08:49:54;;;;;;;20.10;11.95;;;;;;;5.48;100.00;93102.84;4999096;28;20141;-77
2023/12/11 08:52:21;;;;;;;20.48;13.35;;;;;;;5.44;100.00;93086.34;5002564;28;20049;-77
2023/12/11 08:54:50;;;;;;;13.02;7.53;;;;;;;5.62;100.00;93091.03;5004437;28;20141;-77
2023/12/11 08:57:17;;;;;;;21.92;11.65;;;;;;;5.80;100.00;93093.16;5001879;28;20079;-77
2023/12/11 08:59:44;;;;;;;12.50;7.13;;;;;;;5.87;100.00;93083.00;5006615;28;20128;-77
2023/12/11 09:02:12;;;;;;;10.40;5.07;;;;;;;6.01;100.00;93094.09;5006685;28;20411;-77
2023/12/11 09:04:39;;;;;;;6.55;4.03;;;;;;;6.07;97.97;93084.97;5004711;28;20547;-77
2023/12/11 09:07:09;;;;;;;6.43;3.33;;;;;;;6.22;96.16;93074.66;5003789;28;20128;-77
2023/12/11 09:09:37;;;;;;;10.65;4.38;;;;;;;6.24;95.49;93057.41;4999688;28;20082;-77
2023/12/11 09:12:05;;;;;;;8.43;5.32;;;;;;;6.48;94.67;93074.03;5011488;28;20045;-77
2023/12/11 09:14:33;;;;;;;21.25;10.57;;;;;;;6.60;96.92;93064.13;5009076;28;20126;-77
2023/12/11 09:17:00;;;;;;;9.35;5.80;;;;;;;6.74;97.71;93052.19;5005726;28;20050;-77
2023/12/11 09:19:28;;;;;;;11.73;6.70;;;;;;;6.78;95.82;93055.16;4993411;28;20129;-77
2023/12/11 09:21:56;;;;;;;7.85;4.80;;;;;;;6.89;96.40;93046.97;4998141;28;20136;-77
2023/12/11 09:24:23;;;;;;;12.02;7.68;;;;;;;7.00;95.83;93050.75;4991876;28;20046;-76
2023/12/11 09:26:50;;;;;;;8.20;4.82;;;;;;;7.01;94.73;93047.22;4992514;28;20608;-76
2023/12/11 09:29:17;;;;;;;11.65;5.60;;;;;;;7.04;91.97;93046.03;4991216;28;20439;-76
2023/12/11 09:31:44;;;;;;;5.47;3.63;;;;;;;6.91;92.91;93021.25;4992738;28;20840;-76
2023/12/11 09:34:11;;;;;;;16.23;8.45;;;;;;;7.17;94.23;93047.84;4991589;28;20050;-76
2023/12/11 09:36:40;;;;;;;19.90;9.38;;;;;;;7.30;94.53;93035.09;4991556;28;20515;-77
2023/12/11 09:39:07;;;;;;;37.53;18.02;;;;;;;7.37;94.33;93032.56;4991512;28;20586;-76
2023/12/11 09:41:35;;;;;;;28.58;14.18;;;;;;;7.26;94.73;93000.69;4991243;28;20046;-76
2023/12/11 09:44:03;;;;;;;12.85;7.65;;;;;;;7.56;93.49;93036.13;4999115;28;20129;-76
2023/12/11 09:46:38;;;;;;;302.50;126.85;;;;;;;7.59;93.43;93027.28;4991798;28;20422;-76
2023/12/11 09:49:05;;;;;;;16.73;8.00;;;;;;;7.54;85.78;93045.75;4991042;28;20150;-77
2023/12/11 09:51:32;;;;;;;11.40;5.68;;;;;;;7.43;84.43;93036.09;4992078;28;20487;-77
2023/12/11 09:54:03;;;;;;;202.52;86.32;;;;;;;7.49;92.11;93023.34;4991217;28;20077;-77
2023/12/11 09:56:32;;;;;;;63.38;30.90;;;;;;;7.57;92.30;93012.13;5003425;28;20153;-77
2023/12/11 09:58:59;;;;;;;90.25;41.03;;;;;;;7.60;92.09;93006.63;4991458;28;20056;-77
2023/12/11 10:01:27;;;;;;;9.88;5.47;;;;;;;7.51;88.24;93005.25;4998464;28;20132;-77
2023/12/11 10:03:54;;;;;;;6.20;4.15;;;;;;;7.54;88.02;93006.63;4991114;28;20987;-77
2023/12/11 10:06:21;;;;;;;7.15;4.10;;;;;;;7.33;87.29;92991.25;4991177;28;20591;-77
2023/12/11 10:08:52;;;;;;;6.88;4.30;;;;;;;7.53;88.94;93010.16;4991130;28;20544;-77
2023/12/11 10:11:22;;;;;;;6.88;3.63;;;;;;;7.58;90.22;93012.91;4992133;28;20046;-77
2023/12/11 10:13:50;;;;;;;6.30;4.15;;;;;;;7.41;89.65;92980.06;5003166;28;20046;-76
2023/12/11 10:16:31;;;;;;;7.88;4.75;;;;;;;7.61;90.54;92984.41;4994685;28;20492;-77
2023/12/11 10:18:59;;;;;;;112.15;46.08;;;;;;;7.82;91.77;92995.44;5003496;28;20133;-77
2023/12/11 10:21:27;;;;;;;11.75;5.78;;;;;;;7.85;89.78;93002.69;5001250;28;20062;-77
2023/12/11 10:24:04;;;;;;;5.78;3.47;;;;;;;7.66;87.01;92976.16;4999305;28;20523;-77
2023/12/11 10:26:33;;;;;;;17.38;10.32;;;;;;;7.85;89.60;92990.72;4990182;28;20058;-77
2023/12/11 10:29:18;;;;;;;32.75;17.55;;;;;;;7.99;92.15;92994.03;4994539;28;20437;-77
2023/12/11 10:31:45;;;;;;;20.52;12.40;;;;;;;8.09;90.76;92991.06;4990893;28;20489;-76
2023/12/11 10:34:13;;;;;;;32.40;14.13;;;;;;;8.18;90.15;92990.88;4990582;28;20594;-77
2023/12/11 10:36:50;;;;;;;8.32;3.97;;;;;;;8.26;90.26;92988.09;4990775;28;20046;-77
2023/12/11 10:39:17;;;;;;;7.90;4.40;;;;;;;8.32;88.00;93002.63;4990486;28;20141;-77
2023/12/11 10:41:46;;;;;;;8.20;3.92;;;;;;;8.37;87.93;92992.59;4991034;28;20058;-77
2023/12/11 10:44:27;;;;;;;8.48;4.30;;;;;;;8.48;85.47;92985.28;5004518;28;20836;-77
2023/12/11 10:46:56;;;;;;;11.57;6.55;;;;;;;8.49;84.25;93003.00;4992162;28;20085;-77
2023/12/11 10:49:23;;;;;;;28.20;12.68;;;;;;;8.59;86.38;92994.91;5005450;28;20141;-76
2023/12/11 10:51:51;;;;;;;11.20;5.53;;;;;;;8.28;84.49;92991.22;5002079;28;20072;-76
2023/12/11 10:54:18;;;;;;;9.25;4.75;;;;;;;8.31;88.77;92983.16;4995187;28;20783;-76
2023/12/11 10:56:48;;;;;;;5.38;3.22;;;;;;;8.44;89.77;92982.34;4995832;28;20390;-76
2023/12/11 10:59:15;;;;;;;6.95;3.63;;;;;;;8.55;88.38;92978.38;4990296;28;20146;-76
2023/12/11 11:01:45;;;;;;;5.50;3.45;;;;;;;8.65;87.30;92977.94;5003030;28;20057;-76
2023/12/11 11:04:13;;;;;;;370.25;171.40;;;;;;;8.68;86.27;92969.88;4990118;28;20523;-77
2023/12/11 11:06:51;;;;;;;53.25;25.00;;;;;;;8.64;84.54;92959.25;4994875;28;20415;-76
2023/12/11 11:09:28;;;;;;;132.32;62.22;;;;;;;8.76;82.41;92964.53;4995224;28;20058;-77
2023/12/11 11:12:04;;;;;;;68.70;32.22;;;;;;;8.80;84.06;92949.53;4997471;28;20504;-76
2023/12/11 11:14:48;;;;;;;103.63;46.05;;;;;;;8.81;82.70;92945.97;4989618;28;20056;-77
2023/12/11 11:17:17;;;;;;;63.03;29.80;;;;;;;8.65;82.08;92924.97;4989961;28;20045;-76
2023/12/11 11:20:09;;;;;;;21.40;10.40;;;;;;;8.76;82.36;92956.03;4991488;28;20134;-77
2023/12/11 11:22:36;;;;;;;69.20;31.27;;;;;;;8.80;82.45;92970.78;4996361;28;20049;-76